createdAt,value
2023-05-08T00:02:17.601Z,68.93
2023-05-08T00:04:45.437Z,68.95
2023-05-08T00:07:13.252Z,68.87
2023-05-08T00:09:42.426Z,68.91
2023-05-08T00:12:10.260Z,68.62
2023-05-08T00:14:38.300Z,68.75
2023-05-08T00:17:06.201Z,68.96
2023-05-08T00:19:34.068Z,68.74
2023-05-08T00:22:01.842Z,68.89
2023-05-08T00:24:29.657Z,68.85
2023-05-08T00:26:58.795Z,68.99
2023-05-08T00:29:26.794Z,68.98
2023-05-08T00:31:54.790Z,68.66
2023-05-08T00:34:23.021Z,68.61
2023-05-08T00:36:50.764Z,68.75
2023-05-08T00:39:18.581Z,68.78
2023-05-08T00:41:46.758Z,68.61
2023-05-08T00:44:16.116Z,68.81
2023-05-08T00:46:45.686Z,68.43
2023-05-08T00:49:14.610Z,68.45
2023-05-08T00:51:43.382Z,68.67
2023-05-08T00:54:12.194Z,69.01
2023-05-08T00:56:40.206Z,69.11
2023-05-08T00:59:13.018Z,69.23
2023-05-08T01:01:42.595Z,69.01
2023-05-08T01:04:11.006Z,68.76
2023-05-08T01:06:38.931Z,69.14
2023-05-08T01:09:07.803Z,69.03
2023-05-08T01:11:42.527Z,69.04
2023-05-08T01:14:17.618Z,68.72
2023-05-08T01:16:57.276Z,68.96
2023-05-08T01:19:54.216Z,69.01
2023-05-08T01:22:35.140Z,68.80
2023-05-08T01:25:41.689Z,68.97
2023-05-08T01:28:31.592Z,68.94
2023-05-08T01:31:06.702Z,69.11
2023-05-08T01:33:42.282Z,69.15
2023-05-08T01:36:21.811Z,69.04
2023-05-08T01:38:57.228Z,68.93
2023-05-08T01:41:28.744Z,68.90
2023-05-08T01:44:07.267Z,68.93
2023-05-08T01:46:35.186Z,68.79
2023-05-08T01:49:10.668Z,68.85
2023-05-08T01:51:50.196Z,68.88
2023-05-08T01:54:21.350Z,68.87
2023-05-08T01:56:51.515Z,68.64
2023-05-08T01:59:23.205Z,68.69
2023-05-08T02:01:55.167Z,68.60
2023-05-08T02:04:25.138Z,68.60
2023-05-08T02:06:54.644Z,68.80
2023-05-08T02:09:24.984Z,68.70
2023-05-08T02:11:54.475Z,68.92
2023-05-08T02:14:23.733Z,68.92
2023-05-08T02:16:53.770Z,68.88
2023-05-08T02:19:26.024Z,68.96
2023-05-08T02:21:56.208Z,68.82
2023-05-08T02:24:25.871Z,68.81
2023-05-08T02:26:54.713Z,68.90
2023-05-08T02:29:24.184Z,68.68
2023-05-08T02:31:54.558Z,68.75
2023-05-08T02:34:24.703Z,68.68
2023-05-08T02:36:54.526Z,68.85
2023-05-08T02:39:26.077Z,68.86
2023-05-08T02:41:53.926Z,68.95
2023-05-08T02:44:21.937Z,68.71
2023-05-08T02:46:57.316Z,68.75
2023-05-08T02:49:33.128Z,68.77
2023-05-08T02:52:07.249Z,68.89
2023-05-08T02:54:43.399Z,69.05
2023-05-08T02:57:19.830Z,69.06
2023-05-08T02:59:58.054Z,68.93
2023-05-08T03:02:33.439Z,68.94
2023-05-08T03:05:08.041Z,68.91
2023-05-08T03:07:39.980Z,69.11
2023-05-08T03:10:13.097Z,69.01
2023-05-08T03:12:44.525Z,68.95
2023-05-08T03:15:24.072Z,68.97
2023-05-08T03:17:55.959Z,68.95
2023-05-08T03:20:28.201Z,69.11
2023-05-08T03:22:57.160Z,68.94
2023-05-08T03:25:26.114Z,69.20
2023-05-08T03:27:54.939Z,69.08
2023-05-08T03:30:23.470Z,69.08
2023-05-08T03:32:53.846Z,68.83
2023-05-08T03:35:23.784Z,68.88
2023-05-08T03:37:53.909Z,68.92
2023-05-08T03:40:21.742Z,69.12
2023-05-08T03:42:51.105Z,68.89
2023-05-08T03:45:20.696Z,68.96
2023-05-08T03:47:49.445Z,68.93
2023-05-08T03:50:17.527Z,69.00
2023-05-08T03:52:45.390Z,68.86
2023-05-08T03:55:14.540Z,68.92
2023-05-08T03:57:51.417Z,68.93
2023-05-08T04:00:30.236Z,68.97
2023-05-08T04:03:10.061Z,68.86
2023-05-08T04:05:42.153Z,68.87
2023-05-08T04:08:17.421Z,68.96
2023-05-08T04:10:51.041Z,68.86
2023-05-08T04:13:24.759Z,68.96
2023-05-08T04:15:55.132Z,68.74
2023-05-08T04:18:29.363Z,68.76
2023-05-08T04:20:59.197Z,68.90
2023-05-08T04:23:29.692Z,69.00
2023-05-08T04:26:01.176Z,69.03
2023-05-08T04:28:29.485Z,69.13
2023-05-08T04:30:58.557Z,68.98
2023-05-08T04:33:26.586Z,69.07
2023-05-08T04:35:55.318Z,69.31
2023-05-08T04:38:23.219Z,69.25
2023-05-08T04:40:51.150Z,69.11
2023-05-08T04:43:20.452Z,69.30
2023-05-08T04:45:48.307Z,69.11
2023-05-08T04:48:16.384Z,69.27
2023-05-08T04:50:44.453Z,69.25
2023-05-08T04:53:12.307Z,69.19
2023-05-08T04:55:40.194Z,69.08
2023-05-08T04:58:08.032Z,69.38
2023-05-08T05:00:37.541Z,69.35
2023-05-08T05:03:05.413Z,69.22
2023-05-08T05:05:33.410Z,69.28
2023-05-08T05:08:01.272Z,69.17
2023-05-08T05:10:29.215Z,69.18
2023-05-08T05:12:57.093Z,69.24
2023-05-08T05:15:24.915Z,69.40
2023-05-08T05:17:54.243Z,69.38
2023-05-08T05:20:22.109Z,69.46
2023-05-08T05:22:49.850Z,69.31
2023-05-08T05:25:17.801Z,69.61
2023-05-08T05:27:45.613Z,69.57
2023-05-08T05:30:14.015Z,69.48
2023-05-08T05:32:42.288Z,69.58
2023-05-08T05:35:12.408Z,69.44
2023-05-08T05:37:40.545Z,69.62
2023-05-08T05:40:09.507Z,69.56
2023-05-08T05:42:37.720Z,69.64
2023-05-08T05:45:06.337Z,69.58
2023-05-08T05:47:34.205Z,69.36
2023-05-08T05:50:02.022Z,69.48
2023-05-08T05:52:31.618Z,69.67
2023-05-08T05:54:59.422Z,69.60
2023-05-08T05:57:27.395Z,69.57
2023-05-08T05:59:55.137Z,69.35
2023-05-08T06:02:23.246Z,69.68
2023-05-08T06:04:52.466Z,69.80
2023-05-08T06:07:21.097Z,69.61
2023-05-08T06:09:51.235Z,69.43
2023-05-08T06:12:19.317Z,69.48
2023-05-08T06:14:47.195Z,70.24
2023-05-08T06:17:15.064Z,72.69
2023-05-08T06:19:42.902Z,72.05
2023-05-08T06:22:10.691Z,71.50
2023-05-08T06:24:38.517Z,71.12
2023-05-08T06:27:07.629Z,70.98
2023-05-08T06:29:35.610Z,70.97
2023-05-08T06:32:03.398Z,71.09
2023-05-08T06:34:31.568Z,71.09
2023-05-08T06:36:59.404Z,70.91
2023-05-08T06:39:27.397Z,70.88
2023-05-08T06:41:55.189Z,70.95
2023-05-08T06:44:24.323Z,71.08
2023-05-08T06:46:52.131Z,71.11
2023-05-08T06:49:20.538Z,71.03
2023-05-08T06:51:48.483Z,71.37
2023-05-08T06:54:16.313Z,71.30
2023-05-08T06:56:44.241Z,71.31
2023-05-08T06:59:12.294Z,71.13
2023-05-08T07:01:41.790Z,71.35
2023-05-08T07:04:09.728Z,71.32
2023-05-08T07:06:37.568Z,71.43
2023-05-08T07:09:05.548Z,71.43
2023-05-08T07:11:33.370Z,71.81
2023-05-08T07:14:01.260Z,71.78
2023-05-08T07:16:29.448Z,71.92
2023-05-08T07:18:58.684Z,72.00
2023-05-08T07:21:26.804Z,72.17
2023-05-08T07:23:54.929Z,72.37
2023-05-08T07:26:22.890Z,72.08
2023-05-08T07:28:53.852Z,71.98
2023-05-08T07:31:21.890Z,72.44
2023-05-08T07:33:49.831Z,71.86
2023-05-08T07:36:18.932Z,72.04
2023-05-08T07:38:46.766Z,72.02
2023-05-08T07:41:14.614Z,71.99
2023-05-08T07:43:43.656Z,71.73
2023-05-08T07:46:17.955Z,71.86
2023-05-08T07:48:45.822Z,71.92
2023-05-08T07:51:14.410Z,71.57
2023-05-08T07:53:43.669Z,71.78
2023-05-08T07:56:11.469Z,71.95
2023-05-08T07:58:39.474Z,71.81
2023-05-08T08:01:07.315Z,72.02
2023-05-08T08:03:35.276Z,71.95
2023-05-08T08:06:03.180Z,72.06
2023-05-08T08:08:31.090Z,71.86
2023-05-08T08:11:01.720Z,72.07
2023-05-08T08:13:31.757Z,71.94
2023-05-08T08:15:59.794Z,72.22
2023-05-08T08:18:27.623Z,72.09
2023-05-08T08:20:55.423Z,71.74
2023-05-08T08:23:23.214Z,72.04
2023-05-08T08:25:51.498Z,71.89
2023-05-08T08:28:20.747Z,71.71
2023-05-08T08:30:48.608Z,71.96
2023-05-08T08:33:18.289Z,71.94
2023-05-08T08:35:46.898Z,71.87
2023-05-08T08:38:14.723Z,71.94
2023-05-08T08:40:43.590Z,71.86
2023-05-08T08:43:11.460Z,72.10
2023-05-08T08:45:40.762Z,72.01
2023-05-08T08:48:12.480Z,72.23
2023-05-08T08:50:44.019Z,72.23
2023-05-08T08:53:17.049Z,72.49
2023-05-08T08:55:48.195Z,72.66
2023-05-08T08:58:22.947Z,72.21
2023-05-08T09:00:54.840Z,72.29
2023-05-08T09:03:23.116Z,72.02
2023-05-08T09:05:51.167Z,71.94
2023-05-08T09:08:19.803Z,72.98
2023-05-08T09:10:48.182Z,73.04
2023-05-08T09:13:17.343Z,72.88
2023-05-08T09:15:46.906Z,72.82
2023-05-08T09:18:16.042Z,72.56
2023-05-08T09:20:45.580Z,72.47
2023-05-08T09:23:14.805Z,72.43
2023-05-08T09:25:43.745Z,72.39
2023-05-08T09:28:18.432Z,72.19
2023-05-08T09:30:53.952Z,72.02
2023-05-08T09:33:26.228Z,71.71
2023-05-08T09:35:54.366Z,71.43
2023-05-08T09:38:36.368Z,71.83
2023-05-08T09:41:09.255Z,71.74
2023-05-08T09:43:37.492Z,71.98
2023-05-08T09:46:23.163Z,71.81
2023-05-08T09:48:53.899Z,72.00
2023-05-08T09:51:21.985Z,71.83
2023-05-08T09:53:52.800Z,71.62
2023-05-08T09:56:36.587Z,71.36
2023-05-08T09:59:06.720Z,71.33
2023-05-08T10:01:36.561Z,71.35
2023-05-08T10:04:06.460Z,71.18
2023-05-08T10:06:36.362Z,71.43
2023-05-08T10:09:21.885Z,71.29
2023-05-08T10:11:53.120Z,71.22
2023-05-08T10:14:22.815Z,71.52
2023-05-08T10:16:52.910Z,71.61
2023-05-08T10:19:23.493Z,71.62
2023-05-08T10:21:52.775Z,71.47
2023-05-08T10:24:22.077Z,71.58
2023-05-08T10:27:06.867Z,71.51
2023-05-08T10:29:42.577Z,71.56
2023-05-08T10:32:11.573Z,71.46
2023-05-08T10:34:42.726Z,71.39
2023-05-08T10:37:11.345Z,71.48
2023-05-08T10:39:41.448Z,71.68
2023-05-08T10:42:09.570Z,71.66
2023-05-08T10:44:38.185Z,71.62
2023-05-08T10:47:16.220Z,71.75
2023-05-08T10:49:52.791Z,71.92
2023-05-08T10:52:26.135Z,72.22
2023-05-08T10:55:19.892Z,72.09
2023-05-08T10:58:30.731Z,72.01
2023-05-08T11:01:16.117Z,72.12
2023-05-08T11:03:50.666Z,71.88
2023-05-08T11:06:44.357Z,71.82
2023-05-08T11:09:16.904Z,71.51
2023-05-08T11:11:55.892Z,71.57
2023-05-08T11:14:24.907Z,71.67
2023-05-08T11:17:09.101Z,71.46
2023-05-08T11:19:39.045Z,71.34
2023-05-08T11:22:24.857Z,71.41
2023-05-08T11:25:05.079Z,71.32
2023-05-08T11:27:38.204Z,71.08
2023-05-08T11:30:24.528Z,71.19
2023-05-08T11:33:00.261Z,71.08
2023-05-08T11:35:53.036Z,70.88
2023-05-08T11:38:41.013Z,71.12
2023-05-08T11:41:09.821Z,71.00
2023-05-08T11:44:20.632Z,70.85
2023-05-08T11:46:53.845Z,70.95
2023-05-08T11:49:27.397Z,71.23
2023-05-08T11:52:00.347Z,71.46
2023-05-08T11:54:31.598Z,70.94
2023-05-08T11:56:59.694Z,71.01
2023-05-08T11:59:27.784Z,70.97
2023-05-08T12:04:26.428Z,70.99
2023-05-08T12:06:59.723Z,71.22
2023-05-08T12:09:29.020Z,70.86
2023-05-08T12:11:59.971Z,70.94
2023-05-08T12:14:28.045Z,71.06
2023-05-08T12:16:55.962Z,71.15
2023-05-08T12:19:23.830Z,71.21
2023-05-08T12:21:51.653Z,70.93
2023-05-08T12:24:23.247Z,70.97
2023-05-08T12:26:55.592Z,70.99
2023-05-08T12:29:23.787Z,70.34
2023-05-08T12:31:52.240Z,69.87
2023-05-08T12:34:20.770Z,69.28
2023-05-08T12:36:48.693Z,69.43
2023-05-08T12:39:18.232Z,68.79
2023-05-08T12:41:49.879Z,68.25
2023-05-08T12:44:25.028Z,66.91
2023-05-08T12:46:53.927Z,66.75
2023-05-08T12:49:26.287Z,67.10
2023-05-08T12:52:02.382Z,67.69
2023-05-08T12:54:34.321Z,68.33
2023-05-08T12:57:02.075Z,68.72
2023-05-08T12:59:33.282Z,69.45
2023-05-08T13:02:01.113Z,69.56
2023-05-08T13:04:29.214Z,69.39
2023-05-08T13:06:57.537Z,68.29
2023-05-08T13:09:25.412Z,67.51
2023-05-08T13:11:53.166Z,67.78
2023-05-08T13:14:21.014Z,68.18
2023-05-08T13:16:51.805Z,68.62
2023-05-08T13:19:20.048Z,68.52
2023-05-08T13:21:47.905Z,67.13
2023-05-08T13:24:16.032Z,67.29
2023-05-08T13:26:44.153Z,67.49
2023-05-08T13:29:11.982Z,66.71
2023-05-08T13:31:39.844Z,66.33
2023-05-08T13:34:10.069Z,67.34
2023-05-08T13:36:37.978Z,68.04
2023-05-08T13:39:06.560Z,67.67
2023-05-08T13:41:34.372Z,67.10
2023-05-08T13:44:02.180Z,67.10
2023-05-08T13:46:30.072Z,67.17
2023-05-08T13:48:57.872Z,67.56
2023-05-08T13:51:27.226Z,67.53
2023-05-08T13:53:55.013Z,66.77
2023-05-08T13:56:22.868Z,65.80
2023-05-08T13:58:50.727Z,65.69
2023-05-08T14:01:26.653Z,65.34
2023-05-08T14:03:55.043Z,65.06
2023-05-08T14:06:23.417Z,65.37
2023-05-08T14:08:54.631Z,65.66
2023-05-08T14:11:24.906Z,66.32
2023-05-08T14:13:52.761Z,66.81
2023-05-08T14:16:20.603Z,66.29
2023-05-08T14:18:48.749Z,66.61
2023-05-08T14:21:16.618Z,66.15
2023-05-08T14:23:45.107Z,65.60
2023-05-08T14:26:14.292Z,65.02
2023-05-08T14:28:42.114Z,65.51
2023-05-08T14:31:10.045Z,65.85
2023-05-08T14:33:37.888Z,66.18
2023-05-08T14:36:06.064Z,66.79
2023-05-08T14:38:33.898Z,66.42
2023-05-08T14:41:04.270Z,66.78
2023-05-08T14:43:34.343Z,66.70
2023-05-08T14:46:02.325Z,66.44
2023-05-08T14:48:30.239Z,66.07
2023-05-08T14:50:58.627Z,66.33
2023-05-08T14:53:26.770Z,66.71
2023-05-08T14:55:55.066Z,66.29
2023-05-08T14:58:23.555Z,66.13
2023-05-08T15:00:52.779Z,65.82
2023-05-08T15:03:20.698Z,65.74
2023-05-08T15:05:48.567Z,65.46
2023-05-08T15:08:16.664Z,64.90
2023-05-08T15:10:44.647Z,65.63
2023-05-08T15:13:12.569Z,65.05
2023-05-08T15:15:40.476Z,66.10
2023-05-08T15:18:09.666Z,66.85
2023-05-08T15:20:37.566Z,66.55
2023-05-08T15:23:05.641Z,65.92
2023-05-08T15:25:33.459Z,65.95
2023-05-08T15:28:01.490Z,65.08
2023-05-08T15:30:29.332Z,65.43
2023-05-08T15:32:57.234Z,66.11
2023-05-08T15:35:26.697Z,66.24
2023-05-08T15:37:55.248Z,65.49
2023-05-08T15:40:23.174Z,65.08
2023-05-08T15:42:50.954Z,65.75
2023-05-08T15:45:18.806Z,66.24
2023-05-08T15:47:46.937Z,66.23
2023-05-08T15:50:15.687Z,66.07
2023-05-08T15:52:44.907Z,66.42
2023-05-08T15:55:13.246Z,66.16
2023-05-08T15:57:41.265Z,65.99
2023-05-08T16:00:10.325Z,65.97
2023-05-08T16:02:38.144Z,65.95
2023-05-08T16:05:06.527Z,66.02
2023-05-08T16:07:34.321Z,65.30
2023-05-08T16:10:05.340Z,66.02
2023-05-08T16:12:34.540Z,65.89
2023-05-08T16:15:02.389Z,65.65
2023-05-08T16:17:30.265Z,65.64
2023-05-08T16:19:58.135Z,65.49
2023-05-08T16:22:26.068Z,65.06
2023-05-08T16:24:54.654Z,64.76
2023-05-08T16:27:23.847Z,65.64
2023-05-08T16:29:51.627Z,65.27
2023-05-08T16:32:19.421Z,66.01
2023-05-08T16:34:47.400Z,65.27
2023-05-08T16:37:15.134Z,64.83
2023-05-08T16:39:42.860Z,64.48
2023-05-08T16:42:10.734Z,64.62
2023-05-08T16:44:40.189Z,65.43
2023-05-08T16:47:08.044Z,65.33
2023-05-08T16:49:36.215Z,65.52
2023-05-08T16:52:04.026Z,65.22
2023-05-08T16:54:32.038Z,64.27
2023-05-08T16:57:00.025Z,65.63
2023-05-08T16:59:27.925Z,65.56
2023-05-08T17:01:57.127Z,66.32
2023-05-08T17:04:25.003Z,65.68
2023-05-08T17:06:53.050Z,65.22
2023-05-08T17:09:20.830Z,66.09
2023-05-08T17:11:48.581Z,65.82
2023-05-08T17:14:16.463Z,65.59
2023-05-08T17:16:44.450Z,65.95
2023-05-08T17:19:13.759Z,65.34
2023-05-08T17:21:41.600Z,65.45
2023-05-08T17:24:09.866Z,65.04
2023-05-08T17:26:37.682Z,64.88
2023-05-08T17:29:05.764Z,65.22
2023-05-08T17:31:33.544Z,65.34
2023-05-08T17:34:01.720Z,65.12
2023-05-08T17:36:31.013Z,65.20
2023-05-08T17:38:58.854Z,65.00
2023-05-08T17:41:26.601Z,64.99
2023-05-08T17:43:54.996Z,65.07
2023-05-08T17:46:23.039Z,65.08
2023-05-08T17:48:50.896Z,64.46
2023-05-08T17:51:18.872Z,64.11
2023-05-08T17:53:48.464Z,64.24
2023-05-08T17:56:20.313Z,63.90
2023-05-08T17:58:48.286Z,63.98
2023-05-08T18:01:16.108Z,64.17
2023-05-08T18:03:45.288Z,63.92
2023-05-08T18:06:16.103Z,64.04
2023-05-08T18:08:44.176Z,63.96
2023-05-08T18:11:21.234Z,63.87
2023-05-08T18:13:49.444Z,64.07
2023-05-08T18:16:19.099Z,64.13
2023-05-08T18:18:47.003Z,63.91
2023-05-08T18:21:15.074Z,63.65
2023-05-08T18:23:43.081Z,63.74
2023-05-08T18:26:15.035Z,63.91
2023-05-08T18:28:45.249Z,63.70
2023-05-08T18:31:13.845Z,63.98
2023-05-08T18:33:41.715Z,63.85
2023-05-08T18:36:09.520Z,63.90
2023-05-08T18:38:37.468Z,63.78
2023-05-08T18:41:07.163Z,63.75
2023-05-08T18:43:35.214Z,63.84
2023-05-08T18:46:12.241Z,63.87
2023-05-08T18:48:40.593Z,63.76
2023-05-08T18:51:08.419Z,63.89
2023-05-08T18:53:38.614Z,63.87
2023-05-08T18:56:07.235Z,63.63
2023-05-08T18:58:35.278Z,63.49
2023-05-08T19:01:03.122Z,63.60
2023-05-08T19:03:32.480Z,63.61
2023-05-08T19:06:00.309Z,63.77
2023-05-08T19:08:28.234Z,63.61
2023-05-08T19:10:56.098Z,63.58
2023-05-08T19:13:24.362Z,63.79
2023-05-08T19:15:54.567Z,63.93
2023-05-08T19:18:22.420Z,63.68
2023-05-08T19:20:51.552Z,63.87
2023-05-08T19:23:19.438Z,63.75
2023-05-08T19:25:47.272Z,63.78
2023-05-08T19:28:15.151Z,63.97
2023-05-08T19:30:42.972Z,63.74
2023-05-08T19:33:10.817Z,63.99
2023-05-08T19:35:38.699Z,63.92
2023-05-08T19:38:08.174Z,64.07
2023-05-08T19:40:48.038Z,63.94
2023-05-08T19:43:20.320Z,63.97
2023-05-08T19:45:48.323Z,64.07
2023-05-08T19:48:17.841Z,64.07
2023-05-08T19:50:46.260Z,63.94
2023-05-08T19:53:15.453Z,64.22
2023-05-08T19:55:43.237Z,64.05
2023-05-08T19:58:13.887Z,63.92
2023-05-08T20:00:41.860Z,63.91
2023-05-08T20:03:09.815Z,63.84
2023-05-08T20:05:37.757Z,64.00
2023-05-08T20:08:05.840Z,64.09
2023-05-08T20:10:35.241Z,64.21
2023-05-08T20:13:03.285Z,64.23
2023-05-08T20:15:31.166Z,64.11
2023-05-08T20:17:59.839Z,64.08
2023-05-08T20:20:29.769Z,64.32
2023-05-08T20:22:58.003Z,64.42
2023-05-08T20:25:25.915Z,64.53
2023-05-08T20:27:55.163Z,64.65
2023-05-08T20:30:23.838Z,64.86
2023-05-08T20:32:52.016Z,65.09
2023-05-08T20:35:20.053Z,65.30
2023-05-08T20:37:49.405Z,65.24
2023-05-08T20:40:17.405Z,65.37
2023-05-08T20:42:45.274Z,65.32
2023-05-08T20:45:14.551Z,65.68
2023-05-08T20:47:42.525Z,65.52
2023-05-08T20:50:10.773Z,65.35
2023-05-08T20:52:40.582Z,65.48
2023-05-08T20:55:10.404Z,65.12
2023-05-08T20:57:38.754Z,65.30
2023-05-08T21:00:08.458Z,65.13
2023-05-08T21:02:40.130Z,65.14
2023-05-08T21:05:08.529Z,65.21
2023-05-08T21:07:36.467Z,65.42
2023-05-08T21:10:05.618Z,65.23
2023-05-08T21:12:33.399Z,65.35
2023-05-08T21:15:01.710Z,65.23
2023-05-08T21:17:29.514Z,65.14
2023-05-08T21:19:58.851Z,65.09
2023-05-08T21:22:26.790Z,65.04
2023-05-08T21:24:54.596Z,65.31
2023-05-08T21:27:22.371Z,65.16
2023-05-08T21:29:50.124Z,65.37
2023-05-08T21:32:18.041Z,65.29
2023-05-08T21:34:45.872Z,65.26
2023-05-08T21:37:15.171Z,65.03
2023-05-08T21:39:43.034Z,65.34
2023-05-08T21:42:11.444Z,65.30
2023-05-08T21:44:39.209Z,65.31
2023-05-08T21:47:07.242Z,65.25
2023-05-08T21:49:34.974Z,65.09
2023-05-08T21:52:02.760Z,65.34
2023-05-08T21:54:32.093Z,65.48
2023-05-08T21:56:59.844Z,65.21
2023-05-08T21:59:27.621Z,65.06
2023-05-08T22:01:55.547Z,65.31
2023-05-08T22:04:23.412Z,65.26
2023-05-08T22:06:51.303Z,65.23
2023-05-08T22:09:19.273Z,65.43
2023-05-08T22:11:48.553Z,65.30
2023-05-08T22:14:16.872Z,65.27
2023-05-08T22:16:44.751Z,65.10
2023-05-08T22:19:12.546Z,65.23
2023-05-08T22:21:40.372Z,65.21
2023-05-08T22:24:09.100Z,65.09
2023-05-08T22:26:36.898Z,65.23
2023-05-08T22:29:08.272Z,65.02
2023-05-08T22:31:36.270Z,65.23
2023-05-08T22:34:04.263Z,64.98
2023-05-08T22:36:32.646Z,65.05
2023-05-08T22:39:01.109Z,64.87
2023-05-08T22:41:30.898Z,65.21
2023-05-08T22:43:58.842Z,65.04
2023-05-08T22:46:28.272Z,64.80
2023-05-08T22:48:56.181Z,65.01
2023-05-08T22:51:24.055Z,64.91
2023-05-08T22:53:52.170Z,65.14
2023-05-08T22:56:20.039Z,65.09
2023-05-08T22:58:48.175Z,65.14
2023-05-08T23:01:17.463Z,65.12
2023-05-08T23:03:47.336Z,65.03
2023-05-08T23:06:15.114Z,65.09
2023-05-08T23:08:42.954Z,65.10
2023-05-08T23:11:10.906Z,64.96
2023-05-08T23:13:38.708Z,65.13
2023-05-08T23:16:07.362Z,65.02
2023-05-08T23:18:35.217Z,65.14
2023-05-08T23:21:08.029Z,64.93
2023-05-08T23:23:36.331Z,65.12
2023-05-08T23:26:05.153Z,65.02
2023-05-08T23:28:33.994Z,65.04
2023-05-08T23:31:02.140Z,65.11
2023-05-08T23:33:29.976Z,65.14
2023-05-08T23:35:58.952Z,65.18
2023-05-08T23:38:28.130Z,65.26
2023-05-08T23:40:56.082Z,65.14
2023-05-08T23:43:23.849Z,65.14
2023-05-08T23:45:51.820Z,65.28
2023-05-08T23:48:19.622Z,65.16
2023-05-08T23:50:48.215Z,65.22
2023-05-08T23:53:16.598Z,65.22
2023-05-08T23:55:46.749Z,65.28
2023-05-08T23:58:14.523Z,65.35
